sensor_id;sensor_type;location;lat;lon;timestamp;P1;durP1;ratioP1;P2;durP2;ratioP2
36787;SDS011;22738;45.560;9.434;2023-06-05T00:02:57;6.60;;;3.67;;
36787;SDS011;22738;45.560;9.434;2023-06-05T00:09:38;5.72;;;3.95;;
36787;SDS011;22738;45.560;9.434;2023-06-05T00:16:19;9.43;;;3.60;;
36787;SDS011;22738;45.560;9.434;2023-06-05T00:23:00;7.00;;;4.07;;
36787;SDS011;22738;45.560;9.434;2023-06-05T00:29:41;6.45;;;4.20;;
36787;SDS011;22738;45.560;9.434;2023-06-05T00:36:22;8.07;;;4.45;;
36787;SDS011;22738;45.560;9.434;2023-06-05T00:43:03;9.38;;;4.75;;
36787;SDS011;22738;45.560;9.434;2023-06-05T00:49:46;7.10;;;4.88;;
36787;SDS011;22738;45.560;9.434;2023-06-05T00:56:29;11.90;;;5.47;;
36787;SDS011;22738;45.560;9.434;2023-06-05T01:03:13;9.13;;;4.75;;
36787;SDS011;22738;45.560;9.434;2023-06-05T01:09:54;10.07;;;4.70;;
36787;SDS011;22738;45.560;9.434;2023-06-05T01:16:36;9.32;;;5.45;;
36787;SDS011;22738;45.560;9.434;2023-06-05T01:23:19;8.20;;;5.75;;
36787;SDS011;22738;45.560;9.434;2023-06-05T01:36:48;8.23;;;5.53;;
36787;SDS011;22738;45.560;9.434;2023-06-05T01:43:30;14.52;;;6.53;;
36787;SDS011;22738;45.560;9.434;2023-06-05T01:50:12;10.32;;;5.40;;
36787;SDS011;22738;45.560;9.434;2023-06-05T01:56:54;11.18;;;6.00;;
36787;SDS011;22738;45.560;9.434;2023-06-05T02:03:36;12.32;;;5.60;;
36787;SDS011;22738;45.560;9.434;2023-06-05T02:10:17;9.77;;;6.40;;
36787;SDS011;22738;45.560;9.434;2023-06-05T02:16:59;10.27;;;5.45;;
36787;SDS011;22738;45.560;9.434;2023-06-05T02:23:40;12.30;;;5.38;;
36787;SDS011;22738;45.560;9.434;2023-06-05T02:30:22;14.02;;;6.63;;
36787;SDS011;22738;45.560;9.434;2023-06-05T02:37:04;14.23;;;7.63;;
36787;SDS011;22738;45.560;9.434;2023-06-05T02:43:46;13.85;;;7.55;;
36787;SDS011;22738;45.560;9.434;2023-06-05T02:50:28;16.55;;;7.57;;
36787;SDS011;22738;45.560;9.434;2023-06-05T02:57:13;11.00;;;6.55;;
36787;SDS011;22738;45.560;9.434;2023-06-05T03:10:40;11.57;;;7.97;;
36787;SDS011;22738;45.560;9.434;2023-06-05T03:17:23;11.45;;;7.40;;
36787;SDS011;22738;45.560;9.434;2023-06-05T03:24:06;12.23;;;7.85;;
36787;SDS011;22738;45.560;9.434;2023-06-05T03:30:50;12.82;;;8.13;;
36787;SDS011;22738;45.560;9.434;2023-06-05T03:44:15;12.35;;;8.27;;
36787;SDS011;22738;45.560;9.434;2023-06-05T03:50:57;16.42;;;8.77;;
36787;SDS011;22738;45.560;9.434;2023-06-05T03:57:38;11.80;;;7.60;;
36787;SDS011;22738;45.560;9.434;2023-06-05T04:04:22;10.77;;;7.13;;
36787;SDS011;22738;45.560;9.434;2023-06-05T04:11:03;14.60;;;7.95;;
36787;SDS011;22738;45.560;9.434;2023-06-05T04:17:45;11.23;;;7.95;;
36787;SDS011;22738;45.560;9.434;2023-06-05T04:24:26;14.95;;;8.98;;
36787;SDS011;22738;45.560;9.434;2023-06-05T04:31:09;21.52;;;8.30;;
36787;SDS011;22738;45.560;9.434;2023-06-05T04:37:50;15.57;;;7.65;;
36787;SDS011;22738;45.560;9.434;2023-06-05T04:44:32;14.98;;;6.47;;
36787;SDS011;22738;45.560;9.434;2023-06-05T04:51:14;11.10;;;5.30;;
36787;SDS011;22738;45.560;9.434;2023-06-05T04:57:55;9.23;;;4.95;;
36787;SDS011;22738;45.560;9.434;2023-06-05T05:04:42;8.88;;;4.40;;
36787;SDS011;22738;45.560;9.434;2023-06-05T05:11:23;8.32;;;4.05;;
36787;SDS011;22738;45.560;9.434;2023-06-05T05:18:06;3.97;;;2.58;;
36787;SDS011;22738;45.560;9.434;2023-06-05T05:24:48;5.40;;;2.70;;
36787;SDS011;22738;45.560;9.434;2023-06-05T05:31:30;5.43;;;2.53;;
36787;SDS011;22738;45.560;9.434;2023-06-05T05:38:12;3.25;;;2.53;;
36787;SDS011;22738;45.560;9.434;2023-06-05T05:44:53;6.03;;;2.97;;
36787;SDS011;22738;45.560;9.434;2023-06-05T05:51:34;6.38;;;3.05;;
36787;SDS011;22738;45.560;9.434;2023-06-05T05:58:15;10.88;;;4.82;;
36787;SDS011;22738;45.560;9.434;2023-06-05T06:04:57;6.43;;;4.30;;
36787;SDS011;22738;45.560;9.434;2023-06-05T06:11:38;5.75;;;3.80;;
36787;SDS011;22738;45.560;9.434;2023-06-05T06:18:19;6.57;;;4.70;;
36787;SDS011;22738;45.560;9.434;2023-06-05T06:25:00;9.38;;;4.68;;
36787;SDS011;22738;45.560;9.434;2023-06-05T06:31:42;12.43;;;6.97;;
36787;SDS011;22738;45.560;9.434;2023-06-05T06:38:23;16.98;;;7.45;;
36787;SDS011;22738;45.560;9.434;2023-06-05T06:45:10;12.93;;;7.50;;
36787;SDS011;22738;45.560;9.434;2023-06-05T06:51:51;11.13;;;6.65;;
36787;SDS011;22738;45.560;9.434;2023-06-05T06:58:32;13.30;;;7.60;;
36787;SDS011;22738;45.560;9.434;2023-06-05T07:05:13;11.65;;;7.32;;
36787;SDS011;22738;45.560;9.434;2023-06-05T07:11:55;16.20;;;7.30;;
36787;SDS011;22738;45.560;9.434;2023-06-05T07:18:39;9.13;;;5.93;;
36787;SDS011;22738;45.560;9.434;2023-06-05T07:25:21;10.15;;;6.57;;
36787;SDS011;22738;45.560;9.434;2023-06-05T07:32:05;14.43;;;8.02;;
36787;SDS011;22738;45.560;9.434;2023-06-05T07:38:47;13.40;;;8.25;;
36787;SDS011;22738;45.560;9.434;2023-06-05T07:45:29;15.00;;;8.55;;
36787;SDS011;22738;45.560;9.434;2023-06-05T07:52:10;17.52;;;9.63;;
36787;SDS011;22738;45.560;9.434;2023-06-05T07:58:51;17.05;;;11.15;;
36787;SDS011;22738;45.560;9.434;2023-06-05T08:05:32;17.42;;;10.75;;
36787;SDS011;22738;45.560;9.434;2023-06-05T08:12:13;19.15;;;10.63;;
36787;SDS011;22738;45.560;9.434;2023-06-05T08:18:55;19.63;;;12.75;;
36787;SDS011;22738;45.560;9.434;2023-06-05T08:25:37;19.50;;;11.53;;
36787;SDS011;22738;45.560;9.434;2023-06-05T08:32:18;19.42;;;10.65;;
36787;SDS011;22738;45.560;9.434;2023-06-05T08:39:01;16.33;;;9.87;;
36787;SDS011;22738;45.560;9.434;2023-06-05T08:45:43;15.43;;;10.38;;
36787;SDS011;22738;45.560;9.434;2023-06-05T08:52:24;16.80;;;9.75;;
36787;SDS011;22738;45.560;9.434;2023-06-05T08:59:07;13.98;;;9.13;;
36787;SDS011;22738;45.560;9.434;2023-06-05T09:05:48;16.23;;;8.77;;
36787;SDS011;22738;45.560;9.434;2023-06-05T09:12:29;11.75;;;8.10;;
36787;SDS011;22738;45.560;9.434;2023-06-05T09:19:10;12.20;;;8.63;;
36787;SDS011;22738;45.560;9.434;2023-06-05T09:25:53;16.38;;;9.13;;
36787;SDS011;22738;45.560;9.434;2023-06-05T09:32:38;11.10;;;7.88;;
36787;SDS011;22738;45.560;9.434;2023-06-05T09:39:20;18.27;;;10.35;;
36787;SDS011;22738;45.560;9.434;2023-06-05T09:46:09;17.65;;;10.70;;
36787;SDS011;22738;45.560;9.434;2023-06-05T09:52:56;14.57;;;9.45;;
36787;SDS011;22738;45.560;9.434;2023-06-05T09:59:45;16.38;;;10.35;;
36787;SDS011;22738;45.560;9.434;2023-06-05T10:06:31;14.25;;;8.05;;
36787;SDS011;22738;45.560;9.434;2023-06-05T10:13:13;11.63;;;7.97;;
36787;SDS011;22738;45.560;9.434;2023-06-05T10:19:55;10.02;;;6.90;;
36787;SDS011;22738;45.560;9.434;2023-06-05T10:40:28;11.07;;;6.75;;
36787;SDS011;22738;45.560;9.434;2023-06-05T10:54:52;9.95;;;6.40;;
36787;SDS011;22738;45.560;9.434;2023-06-05T11:01:21;9.75;;;6.15;;
36787;SDS011;22738;45.560;9.434;2023-06-05T11:08:09;9.25;;;6.50;;
36787;SDS011;22738;45.560;9.434;2023-06-05T11:14:55;12.40;;;6.83;;
36787;SDS011;22738;45.560;9.434;2023-06-05T11:28:44;7.13;;;5.45;;
36787;SDS011;22738;45.560;9.434;2023-06-05T11:35:25;8.13;;;6.30;;
36787;SDS011;22738;45.560;9.434;2023-06-05T11:42:09;12.80;;;5.93;;
36787;SDS011;22738;45.560;9.434;2023-06-05T11:48:51;7.30;;;5.20;;
36787;SDS011;22738;45.560;9.434;2023-06-05T11:55:34;8.77;;;4.85;;
36787;SDS011;22738;45.560;9.434;2023-06-05T12:02:35;7.07;;;4.82;;
36787;SDS011;22738;45.560;9.434;2023-06-05T12:09:17;5.57;;;4.50;;
36787;SDS011;22738;45.560;9.434;2023-06-05T12:15:58;6.07;;;4.50;;
36787;SDS011;22738;45.560;9.434;2023-06-05T12:22:40;6.47;;;3.78;;
36787;SDS011;22738;45.560;9.434;2023-06-05T12:29:24;6.00;;;2.90;;
36787;SDS011;22738;45.560;9.434;2023-06-05T12:36:08;7.47;;;3.90;;
36787;SDS011;22738;45.560;9.434;2023-06-05T12:42:50;6.80;;;4.05;;
36787;SDS011;22738;45.560;9.434;2023-06-05T12:49:31;5.97;;;3.50;;
36787;SDS011;22738;45.560;9.434;2023-06-05T12:56:13;5.32;;;3.28;;
36787;SDS011;22738;45.560;9.434;2023-06-05T13:02:56;6.72;;;3.22;;
36787;SDS011;22738;45.560;9.434;2023-06-05T13:09:37;4.25;;;2.53;;
36787;SDS011;22738;45.560;9.434;2023-06-05T13:16:18;4.63;;;2.40;;
36787;SDS011;22738;45.560;9.434;2023-06-05T13:23:01;3.65;;;2.25;;
36787;SDS011;22738;45.560;9.434;2023-06-05T13:29:42;4.70;;;2.83;;
36787;SDS011;22738;45.560;9.434;2023-06-05T13:36:24;3.75;;;2.60;;
36787;SDS011;22738;45.560;9.434;2023-06-05T13:43:05;3.58;;;2.50;;
36787;SDS011;22738;45.560;9.434;2023-06-05T13:49:46;3.78;;;3.05;;
36787;SDS011;22738;45.560;9.434;2023-06-05T13:56:27;4.22;;;2.95;;
36787;SDS011;22738;45.560;9.434;2023-06-05T14:03:08;4.55;;;2.90;;
36787;SDS011;22738;45.560;9.434;2023-06-05T14:09:49;5.85;;;3.45;;
36787;SDS011;22738;45.560;9.434;2023-06-05T14:16:30;6.30;;;3.40;;
36787;SDS011;22738;45.560;9.434;2023-06-05T14:23:12;6.13;;;3.60;;
36787;SDS011;22738;45.560;9.434;2023-06-05T14:29:53;6.45;;;3.95;;
36787;SDS011;22738;45.560;9.434;2023-06-05T14:36:34;7.28;;;4.82;;
36787;SDS011;22738;45.560;9.434;2023-06-05T14:43:15;6.97;;;4.35;;
36787;SDS011;22738;45.560;9.434;2023-06-05T14:49:56;6.57;;;3.78;;
36787;SDS011;22738;45.560;9.434;2023-06-05T14:56:37;6.55;;;4.60;;
36787;SDS011;22738;45.560;9.434;2023-06-05T15:03:19;4.72;;;2.65;;
36787;SDS011;22738;45.560;9.434;2023-06-05T15:10:01;4.10;;;3.00;;
36787;SDS011;22738;45.560;9.434;2023-06-05T15:16:42;4.95;;;2.90;;
36787;SDS011;22738;45.560;9.434;2023-06-05T15:23:25;4.20;;;2.97;;
36787;SDS011;22738;45.560;9.434;2023-06-05T15:30:07;7.50;;;4.28;;
36787;SDS011;22738;45.560;9.434;2023-06-05T15:36:48;6.20;;;4.32;;
36787;SDS011;22738;45.560;9.434;2023-06-05T15:43:29;5.65;;;4.10;;
36787;SDS011;22738;45.560;9.434;2023-06-05T15:50:10;5.93;;;4.10;;
36787;SDS011;22738;45.560;9.434;2023-06-05T15:57:01;5.55;;;4.13;;
36787;SDS011;22738;45.560;9.434;2023-06-05T16:03:43;3.65;;;2.95;;
36787;SDS011;22738;45.560;9.434;2023-06-05T16:10:24;5.38;;;3.72;;
36787;SDS011;22738;45.560;9.434;2023-06-05T16:17:06;4.53;;;3.33;;
36787;SDS011;22738;45.560;9.434;2023-06-05T16:23:47;5.97;;;3.58;;
36787;SDS011;22738;45.560;9.434;2023-06-05T16:30:28;4.63;;;3.35;;
36787;SDS011;22738;45.560;9.434;2023-06-05T16:37:10;5.05;;;3.33;;
36787;SDS011;22738;45.560;9.434;2023-06-05T16:43:51;7.07;;;4.28;;
36787;SDS011;22738;45.560;9.434;2023-06-05T16:50:32;9.38;;;4.65;;
36787;SDS011;22738;45.560;9.434;2023-06-05T16:57:13;8.48;;;5.80;;
36787;SDS011;22738;45.560;9.434;2023-06-05T17:03:54;10.18;;;7.03;;
36787;SDS011;22738;45.560;9.434;2023-06-05T17:10:36;9.90;;;6.38;;
36787;SDS011;22738;45.560;9.434;2023-06-05T17:17:17;10.93;;;7.82;;
36787;SDS011;22738;45.560;9.434;2023-06-05T17:23:58;12.90;;;8.23;;
36787;SDS011;22738;45.560;9.434;2023-06-05T17:30:39;11.82;;;7.30;;
36787;SDS011;22738;45.560;9.434;2023-06-05T17:37:20;12.70;;;6.72;;
36787;SDS011;22738;45.560;9.434;2023-06-05T17:44:01;11.50;;;7.70;;
36787;SDS011;22738;45.560;9.434;2023-06-05T17:50:42;12.57;;;6.93;;
36787;SDS011;22738;45.560;9.434;2023-06-05T17:57:25;14.32;;;7.93;;
36787;SDS011;22738;45.560;9.434;2023-06-05T18:04:06;11.85;;;8.77;;
36787;SDS011;22738;45.560;9.434;2023-06-05T18:10:47;14.15;;;9.60;;
36787;SDS011;22738;45.560;9.434;2023-06-05T18:17:30;15.53;;;10.10;;
36787;SDS011;22738;45.560;9.434;2023-06-05T18:24:11;8.88;;;6.05;;
36787;SDS011;22738;45.560;9.434;2023-06-05T18:30:53;7.50;;;4.95;;
36787;SDS011;22738;45.560;9.434;2023-06-05T18:37:34;5.47;;;3.70;;
36787;SDS011;22738;45.560;9.434;2023-06-05T18:44:16;5.55;;;3.60;;
36787;SDS011;22738;45.560;9.434;2023-06-05T18:50:57;5.65;;;3.92;;
36787;SDS011;22738;45.560;9.434;2023-06-05T18:57:43;9.30;;;5.03;;
36787;SDS011;22738;45.560;9.434;2023-06-05T19:04:25;8.02;;;5.07;;
36787;SDS011;22738;45.560;9.434;2023-06-05T19:11:07;9.55;;;5.68;;
36787;SDS011;22738;45.560;9.434;2023-06-05T19:17:48;6.65;;;4.40;;
36787;SDS011;22738;45.560;9.434;2023-06-05T19:24:34;8.63;;;5.53;;
36787;SDS011;22738;45.560;9.434;2023-06-05T19:31:17;8.32;;;5.18;;
36787;SDS011;22738;45.560;9.434;2023-06-05T19:37:58;8.20;;;5.70;;
36787;SDS011;22738;45.560;9.434;2023-06-05T19:44:40;11.40;;;6.63;;
36787;SDS011;22738;45.560;9.434;2023-06-05T19:51:25;13.65;;;6.57;;
36787;SDS011;22738;45.560;9.434;2023-06-05T19:58:06;11.15;;;6.22;;
36787;SDS011;22738;45.560;9.434;2023-06-05T20:04:47;9.27;;;5.57;;
36787;SDS011;22738;45.560;9.434;2023-06-05T20:11:28;9.95;;;5.82;;
36787;SDS011;22738;45.560;9.434;2023-06-05T20:18:08;10.48;;;5.97;;
36787;SDS011;22738;45.560;9.434;2023-06-05T20:24:50;8.25;;;6.00;;
36787;SDS011;22738;45.560;9.434;2023-06-05T20:31:34;11.48;;;6.90;;
36787;SDS011;22738;45.560;9.434;2023-06-05T20:38:15;13.93;;;7.35;;
36787;SDS011;22738;45.560;9.434;2023-06-05T20:45:00;9.90;;;7.13;;
36787;SDS011;22738;45.560;9.434;2023-06-05T20:51:41;13.10;;;7.13;;
36787;SDS011;22738;45.560;9.434;2023-06-05T20:58:22;11.52;;;7.60;;
36787;SDS011;22738;45.560;9.434;2023-06-05T21:05:04;13.45;;;8.23;;
36787;SDS011;22738;45.560;9.434;2023-06-05T21:11:46;14.02;;;9.40;;
36787;SDS011;22738;45.560;9.434;2023-06-05T21:18:27;19.00;;;10.68;;
36787;SDS011;22738;45.560;9.434;2023-06-05T21:25:08;16.73;;;11.27;;
36787;SDS011;22738;45.560;9.434;2023-06-05T21:31:50;19.20;;;12.77;;
36787;SDS011;22738;45.560;9.434;2023-06-05T21:38:31;17.90;;;12.18;;
36787;SDS011;22738;45.560;9.434;2023-06-05T21:45:12;27.70;;;14.35;;
36787;SDS011;22738;45.560;9.434;2023-06-05T21:51:53;19.52;;;12.82;;
36787;SDS011;22738;45.560;9.434;2023-06-05T21:58:34;19.80;;;13.23;;
36787;SDS011;22738;45.560;9.434;2023-06-05T22:05:15;23.98;;;14.88;;
36787;SDS011;22738;45.560;9.434;2023-06-05T22:11:56;21.60;;;13.52;;
36787;SDS011;22738;45.560;9.434;2023-06-05T22:18:38;22.05;;;13.60;;
36787;SDS011;22738;45.560;9.434;2023-06-05T22:25:22;20.75;;;13.77;;
36787;SDS011;22738;45.560;9.434;2023-06-05T22:32:03;22.15;;;13.90;;
36787;SDS011;22738;45.560;9.434;2023-06-05T22:38:44;29.67;;;15.93;;
36787;SDS011;22738;45.560;9.434;2023-06-05T22:45:27;27.80;;;15.38;;
36787;SDS011;22738;45.560;9.434;2023-06-05T22:52:08;24.98;;;16.33;;
36787;SDS011;22738;45.560;9.434;2023-06-05T22:58:57;22.50;;;14.50;;
36787;SDS011;22738;45.560;9.434;2023-06-05T23:05:39;25.90;;;15.27;;
36787;SDS011;22738;45.560;9.434;2023-06-05T23:12:20;23.27;;;14.00;;
36787;SDS011;22738;45.560;9.434;2023-06-05T23:19:02;22.75;;;12.55;;
36787;SDS011;22738;45.560;9.434;2023-06-05T23:25:43;22.70;;;13.85;;
36787;SDS011;22738;45.560;9.434;2023-06-05T23:32:25;18.75;;;12.48;;
36787;SDS011;22738;45.560;9.434;2023-06-05T23:39:06;21.58;;;13.30;;
36787;SDS011;22738;45.560;9.434;2023-06-05T23:45:51;17.98;;;12.00;;
36787;SDS011;22738;45.560;9.434;2023-06-05T23:52:33;23.48;;;13.40;;
36787;SDS011;22738;45.560;9.434;2023-06-05T23:59:14;24.05;;;13.13;;
